Time;durP1;ratioP1;P1;durP2;ratioP2;P2;SDS_P1;SDS_P2;PMS_P1;PMS_P2;Temp;Humidity;BMP_temperature;BMP_pressure;BME280_temperature;BME280_humidity;BME280_pressure;Samples;Min_cycle;Max_cycle;Signal;HPM_P1;HPM_P2
2023/03/26 00:01:07;;;;;;;5.53;4.05;;;10.90;87.50;;;;;;4994076;28;20471;-64
2023/03/26 00:03:34;;;;;;;5.65;4.00;;;10.90;87.60;;;;;;4994135;28;20070;-63
2023/03/26 00:06:11;;;;;;;5.85;4.10;;;10.90;87.80;;;;;;4993947;28;20037;-63
2023/03/26 00:08:39;;;;;;;6.15;4.22;;;10.90;87.80;;;;;;4994187;28;20510;-63
2023/03/26 00:11:06;;;;;;;6.18;4.20;;;10.90;87.80;;;;;;4993966;28;20052;-63
2023/03/26 00:13:32;;;;;;;6.90;4.53;;;10.90;87.70;;;;;;4993864;28;20482;-63
2023/03/26 00:15:59;;;;;;;6.90;4.47;;;10.90;87.70;;;;;;4993919;28;20041;-63
2023/03/26 00:18:29;;;;;;;6.65;4.32;;;10.90;87.70;;;;;;4993549;28;20042;-63
2023/03/26 00:20:59;;;;;;;7.82;4.82;;;10.80;87.50;;;;;;4993969;28;20343;-64
2023/03/26 00:23:27;;;;;;;8.48;5.07;;;10.90;87.60;;;;;;4993726;28;20041;-63
2023/03/26 00:25:53;;;;;;;10.98;5.70;;;10.80;87.60;;;;;;4993861;28;20053;-62
2023/03/26 00:28:21;;;;;;;8.30;5.20;;;10.80;87.60;;;;;;4993733;28;20057;-63
2023/03/26 00:30:48;;;;;;;7.13;5.07;;;10.70;87.60;;;;;;4993879;28;20084;-62
2023/03/26 00:33:16;;;;;;;11.82;5.95;;;10.70;87.70;;;;;;4993818;28;20039;-62
2023/03/26 00:35:45;;;;;;;7.68;5.20;;;10.70;87.90;;;;;;4993699;28;20019;-62
2023/03/26 00:38:13;;;;;;;8.45;5.60;;;10.70;88.00;;;;;;4993474;28;20058;-63
2023/03/26 00:40:42;;;;;;;7.28;5.55;;;10.70;88.20;;;;;;4993580;28;20509;-62
2023/03/26 00:43:17;;;;;;;8.27;5.72;;;10.60;88.40;;;;;;4992654;28;20023;-62
2023/03/26 00:45:45;;;;;;;6.45;4.43;;;10.60;88.70;;;;;;4993396;28;20030;-63
2023/03/26 00:48:11;;;;;;;6.68;4.90;;;10.70;88.90;;;;;;4992922;28;20513;-62
2023/03/26 00:50:37;;;;;;;6.18;4.60;;;10.70;89.00;;;;;;4993292;28;20529;-62
2023/03/26 00:53:03;;;;;;;7.97;5.13;;;10.60;89.00;;;;;;4993645;28;20022;-63
2023/03/26 00:55:29;;;;;;;7.78;5.22;;;10.60;88.60;;;;;;4993399;28;20026;-62
2023/03/26 00:57:55;;;;;;;6.95;5.00;;;10.60;88.90;;;;;;4992137;28;20074;-62
2023/03/26 01:00:30;;;;;;;8.55;5.20;;;10.60;88.20;;;;;;4990661;28;20067;-63
2023/03/26 01:02:57;;;;;;;8.77;5.30;;;10.50;88.00;;;;;;4990491;28;20031;-63
2023/03/26 01:05:34;;;;;;;11.13;5.25;;;10.50;88.20;;;;;;4992109;28;20097;-62
2023/03/26 01:08:15;;;;;;;5.90;4.65;;;10.40;88.20;;;;;;4993776;28;20356;-62
2023/03/26 01:10:49;;;;;;;6.43;4.63;;;10.40;88.30;;;;;;4995877;28;20038;-63
2023/03/26 01:13:17;;;;;;;8.00;4.32;;;10.40;88.40;;;;;;4996914;28;20037;-63
2023/03/26 01:15:48;;;;;;;8.80;5.15;;;10.30;88.40;;;;;;4997199;28;20168;-62
2023/03/26 01:18:14;;;;;;;9.70;5.30;;;10.30;88.60;;;;;;4997047;28;20088;-62
2023/03/26 01:20:45;;;;;;;6.72;4.55;;;10.30;88.60;;;;;;4996962;28;20438;-63
2023/03/26 01:23:14;;;;;;;7.07;5.10;;;10.30;88.60;;;;;;4996996;28;20117;-62
2023/03/26 01:25:47;;;;;;;7.87;5.10;;;10.20;88.60;;;;;;4997141;28;20022;-62
2023/03/26 01:28:16;;;;;;;6.97;4.97;;;10.30;88.60;;;;;;4996943;28;20058;-62
2023/03/26 01:31:08;;;;;;;8.83;5.10;;;10.20;88.50;;;;;;4997085;28;20030;-63
2023/03/26 01:34:06;;;;;;;6.65;4.97;;;10.20;88.60;;;;;;4986632;28;20030;-62
2023/03/26 01:36:51;;;;;;;7.15;5.07;;;10.20;88.70;;;;;;4996748;28;20129;-63
2023/03/26 01:39:37;;;;;;;8.48;4.47;;;10.20;88.70;;;;;;4996638;28;20093;-62
2023/03/26 01:42:11;;;;;;;7.10;4.95;;;10.10;88.70;;;;;;4995440;28;20077;-63
2023/03/26 01:45:08;;;;;;;7.83;4.57;;;10.10;89.00;;;;;;4996468;28;20110;-63
2023/03/26 01:47:36;;;;;;;9.90;4.93;;;10.10;89.20;;;;;;4996568;28;20085;-63
2023/03/26 01:50:02;;;;;;;6.63;4.87;;;10.00;89.30;;;;;;4996647;28;20108;-62
2023/03/26 01:52:28;;;;;;;7.80;5.22;;;10.00;89.40;;;;;;4996494;28;20470;-63
2023/03/26 01:54:55;;;;;;;8.23;5.00;;;10.00;89.50;;;;;;4996558;28;20034;-62
2023/03/26 01:57:41;;;;;;;6.50;4.70;;;10.00;89.60;;;;;;4996716;28;20437;-63
2023/03/26 02:00:17;;;;;;;7.32;4.75;;;10.00;89.60;;;;;;4966517;28;20069;-63
2023/03/26 02:03:21;;;;;;;6.60;4.80;;;9.90;89.70;;;;;;4996463;28;20030;-63
2023/03/26 02:05:56;;;;;;;6.83;4.60;;;9.90;89.90;;;;;;4996382;28;20035;-64
2023/03/26 02:08:37;;;;;;;8.30;4.40;;;9.90;89.90;;;;;;4996421;28;20027;-63
2023/03/26 02:11:10;;;;;;;6.83;4.33;;;9.90;90.00;;;;;;4996285;28;20489;-64
2023/03/26 02:13:36;;;;;;;9.23;5.00;;;9.90;90.00;;;;;;4996446;28;20455;-63
2023/03/26 02:16:05;;;;;;;6.97;4.87;;;9.90;90.10;;;;;;4996272;28;20046;-64
2023/03/26 02:18:40;;;;;;;7.77;4.57;;;9.90;90.10;;;;;;4996030;28;20161;-64
2023/03/26 02:21:12;;;;;;;7.93;4.50;;;9.90;90.10;;;;;;4995323;28;20018;-64
2023/03/26 02:23:45;;;;;;;7.90;4.87;;;9.90;90.10;;;;;;4996378;28;20125;-64
2023/03/26 02:26:13;;;;;;;6.90;4.70;;;9.90;90.10;;;;;;4994772;28;20383;-64
2023/03/26 02:28:39;;;;;;;7.53;5.30;;;9.90;90.10;;;;;;4996087;28;20022;-64
2023/03/26 02:31:08;;;;;;;7.50;4.70;;;9.80;90.10;;;;;;4995897;28;20026;-64
2023/03/26 02:33:34;;;;;;;6.37;4.37;;;9.90;90.20;;;;;;4996030;28;20106;-64
2023/03/26 02:36:02;;;;;;;5.87;3.80;;;9.80;90.20;;;;;;4995654;28;20439;-64
2023/03/26 02:38:32;;;;;;;5.43;3.80;;;9.90;90.30;;;;;;4995932;28;20034;-64
2023/03/26 02:40:58;;;;;;;6.07;4.10;;;9.80;90.30;;;;;;4995661;28;20025;-65
2023/03/26 02:43:24;;;;;;;8.57;4.50;;;9.80;90.60;;;;;;4995530;28;20023;-64
2023/03/26 02:45:50;;;;;;;7.90;4.47;;;9.90;90.50;;;;;;4995716;28;20101;-64
2023/03/26 02:48:16;;;;;;;5.87;3.63;;;9.90;90.40;;;;;;4994944;28;20054;-63
2023/03/26 02:50:42;;;;;;;6.57;3.83;;;9.90;90.50;;;;;;4995385;28;20098;-64
2023/03/26 02:53:08;;;;;;;4.00;3.00;;;9.90;90.70;;;;;;4995340;28;20036;-63
2023/03/26 02:55:34;;;;;;;5.27;2.63;;;9.90;90.70;;;;;;4995287;28;20101;-64
2023/03/26 02:58:00;;;;;;;4.60;2.88;;;9.90;90.70;;;;;;4995122;28;20121;-64
2023/03/26 03:00:26;;;;;;;3.53;2.00;;;9.90;90.70;;;;;;4995198;28;20092;-63
2023/03/26 03:02:52;;;;;;;3.33;1.80;;;9.90;90.70;;;;;;4994991;28;20034;-63
2023/03/26 03:05:18;;;;;;;3.92;1.85;;;9.90;90.70;;;;;;4994754;28;20133;-64
2023/03/26 03:07:45;;;;;;;4.03;2.70;;;10.00;90.60;;;;;;4995229;28;20034;-64
2023/03/26 03:10:12;;;;;;;6.47;2.97;;;10.00;90.60;;;;;;4995197;28;20098;-63
2023/03/26 03:12:39;;;;;;;4.70;3.43;;;10.00;90.60;;;;;;4995224;28;20046;-63
2023/03/26 03:15:06;;;;;;;4.70;2.93;;;10.00;90.50;;;;;;4995039;28;20027;-63
2023/03/26 03:17:32;;;;;;;8.93;3.30;;;10.00;90.60;;;;;;4994550;28;20065;-64
2023/03/26 03:19:58;;;;;;;6.18;3.20;;;10.00;90.70;;;;;;4993592;28;20054;-63
2023/03/26 03:22:24;;;;;;;5.15;3.10;;;10.00;90.60;;;;;;4995011;28;20070;-63
2023/03/26 03:24:56;;;;;;;5.87;3.93;;;10.00;90.60;;;;;;4994908;28;20053;-63
2023/03/26 03:27:24;;;;;;;5.97;4.53;;;10.00;90.60;;;;;;4994578;28;20023;-64
2023/03/26 03:29:52;;;;;;;6.80;3.90;;;10.00;90.50;;;;;;4994685;28;20113;-64
2023/03/26 03:32:18;;;;;;;7.43;4.40;;;9.90;90.50;;;;;;4994351;28;20022;-64
2023/03/26 03:34:44;;;;;;;5.78;4.32;;;9.90;90.50;;;;;;4994669;28;20042;-64
2023/03/26 03:37:10;;;;;;;6.93;4.15;;;9.90;90.50;;;;;;4994481;28;20041;-64
2023/03/26 03:39:36;;;;;;;5.13;3.92;;;9.90;90.50;;;;;;4994651;28;20045;-63
2023/03/26 03:42:02;;;;;;;7.63;3.93;;;9.90;90.50;;;;;;4994682;28;20026;-64
2023/03/26 03:44:28;;;;;;;6.73;3.67;;;9.80;90.40;;;;;;4994359;28;20030;-64
2023/03/26 03:46:54;;;;;;;7.70;5.03;;;9.80;90.50;;;;;;4994171;28;20056;-63
2023/03/26 03:49:21;;;;;;;5.70;3.93;;;9.80;90.50;;;;;;4994649;28;20026;-64
2023/03/26 03:51:47;;;;;;;6.27;3.73;;;9.80;90.50;;;;;;4994391;28;20026;-63
2023/03/26 03:54:13;;;;;;;6.27;4.30;;;9.80;90.70;;;;;;4994495;28;20390;-64
2023/03/26 03:56:39;;;;;;;7.70;4.18;;;9.80;90.70;;;;;;4994258;28;20041;-63
2023/03/26 03:59:05;;;;;;;6.13;3.97;;;9.70;90.80;;;;;;4994007;28;20038;-64
2023/03/26 04:01:30;;;;;;;6.53;4.30;;;9.80;90.90;;;;;;4994056;28;20073;-64
2023/03/26 04:03:57;;;;;;;5.47;3.80;;;9.80;90.90;;;;;;4994193;28;20039;-64
2023/03/26 04:06:24;;;;;;;6.50;3.70;;;9.70;90.90;;;;;;4994095;28;20471;-64
2023/03/26 04:08:50;;;;;;;6.90;3.83;;;9.80;90.90;;;;;;4994324;28;20487;-64
2023/03/26 04:11:16;;;;;;;4.47;3.30;;;9.80;90.90;;;;;;4994152;28;20124;-64
2023/03/26 04:13:42;;;;;;;4.70;3.30;;;9.70;90.80;;;;;;4994053;28;20498;-64
2023/03/26 04:16:09;;;;;;;6.50;3.28;;;9.70;90.80;;;;;;4993942;28;20421;-63
2023/03/26 04:18:36;;;;;;;6.00;3.23;;;9.70;90.80;;;;;;4993976;28;20117;-63
2023/03/26 04:21:04;;;;;;;4.67;3.33;;;9.80;90.70;;;;;;4993988;28;20437;-63
2023/03/26 04:23:31;;;;;;;4.43;3.23;;;9.80;90.80;;;;;;4993798;28;20030;-64
2023/03/26 04:26:02;;;;;;;5.83;3.53;;;9.70;90.90;;;;;;4993950;28;20019;-64
2023/03/26 04:28:30;;;;;;;6.20;3.47;;;9.70;90.90;;;;;;4993565;28;20034;-64
2023/03/26 04:31:02;;;;;;;7.00;4.60;;;9.70;91.10;;;;;;4993667;28;20061;-64
2023/03/26 04:33:33;;;;;;;7.15;4.70;;;9.70;91.20;;;;;;4993780;28;20030;-64
2023/03/26 04:36:02;;;;;;;8.60;5.13;;;9.70;91.10;;;;;;4993806;28;20018;-64
2023/03/26 04:38:44;;;;;;;11.43;5.60;;;9.70;91.10;;;;;;4993496;28;20034;-64
2023/03/26 04:41:14;;;;;;;10.05;6.22;;;9.70;91.10;;;;;;4993589;28;20066;-64
2023/03/26 04:43:46;;;;;;;10.20;6.07;;;9.70;91.10;;;;;;4993544;28;20030;-63
2023/03/26 04:46:20;;;;;;;10.00;6.53;;;9.70;91.20;;;;;;4993398;28;20114;-64
2023/03/26 04:48:50;;;;;;;15.57;7.17;;;9.70;91.20;;;;;;4993690;28;20434;-64
2023/03/26 04:51:17;;;;;;;13.53;7.13;;;9.70;91.30;;;;;;4993547;28;20391;-64
2023/03/26 04:53:52;;;;;;;13.40;7.77;;;9.70;91.50;;;;;;4993440;28;20137;-64
2023/03/26 04:56:55;;;;;;;15.23;8.07;;;9.70;91.50;;;;;;4993717;28;20057;-64
2023/03/26 04:59:28;;;;;;;13.97;7.50;;;9.70;91.50;;;;;;4993484;28;20046;-64
2023/03/26 05:01:56;;;;;;;12.33;7.53;;;9.70;91.60;;;;;;4993349;28;20019;-64
2023/03/26 05:04:22;;;;;;;12.57;6.97;;;9.70;91.60;;;;;;4993375;28;20037;-64
2023/03/26 05:06:48;;;;;;;15.52;7.35;;;9.70;91.50;;;;;;4993281;28;20027;-65
2023/03/26 05:09:14;;;;;;;13.37;7.20;;;9.70;91.50;;;;;;4993263;28;20031;-63
2023/03/26 05:11:40;;;;;;;11.73;6.07;;;9.70;91.60;;;;;;4993268;28;20434;-63
2023/03/26 05:14:07;;;;;;;10.13;6.10;;;9.70;91.60;;;;;;4993114;28;20031;-64
2023/03/26 05:16:34;;;;;;;12.77;5.63;;;9.60;91.60;;;;;;4993308;28;20026;-64
2023/03/26 05:19:00;;;;;;;8.40;4.97;;;9.70;91.60;;;;;;4993042;28;20536;-64
2023/03/26 05:21:26;;;;;;;8.60;5.20;;;9.70;91.60;;;;;;4993299;28;20105;-64
2023/03/26 05:23:51;;;;;;;8.10;4.63;;;9.70;91.70;;;;;;4993009;28;20109;-63
2023/03/26 05:26:18;;;;;;;8.80;4.70;;;9.70;91.70;;;;;;4993310;28;20105;-64
2023/03/26 05:28:44;;;;;;;6.95;4.18;;;9.70;91.70;;;;;;4993232;28;20045;-67
2023/03/26 05:31:09;;;;;;;9.18;4.55;;;9.70;91.90;;;;;;4993012;28;20030;-62
2023/03/26 05:33:35;;;;;;;6.35;4.28;;;9.70;91.80;;;;;;4993073;28;20033;-65
2023/03/26 05:36:04;;;;;;;12.17;4.30;;;9.70;91.90;;;;;;4992622;28;20030;-64
2023/03/26 05:38:30;;;;;;;6.57;4.20;;;9.70;91.90;;;;;;4992817;28;20401;-64
2023/03/26 05:41:01;;;;;;;7.13;4.57;;;9.70;92.00;;;;;;4993082;28;20069;-64
2023/03/26 05:43:27;;;;;;;6.57;4.43;;;9.70;92.00;;;;;;4992698;28;20126;-65
2023/03/26 05:45:53;;;;;;;6.77;4.43;;;9.70;92.10;;;;;;4992734;28;20027;-64
2023/03/26 05:48:20;;;;;;;7.97;4.80;;;9.70;92.20;;;;;;4992785;28;20054;-64
2023/03/26 05:50:56;;;;;;;6.87;4.80;;;9.70;92.30;;;;;;4992724;28;20057;-65
2023/03/26 05:53:23;;;;;;;10.13;4.90;;;9.80;92.30;;;;;;4973374;28;20027;-65
2023/03/26 05:55:54;;;;;;;9.53;5.00;;;9.80;92.30;;;;;;4973099;28;20035;-65
2023/03/26 05:58:20;;;;;;;6.17;4.40;;;9.80;92.30;;;;;;4976258;28;20038;-64
2023/03/26 06:00:47;;;;;;;7.70;5.00;;;9.80;92.30;;;;;;4976577;28;20103;-65
2023/03/26 06:03:15;;;;;;;8.87;5.20;;;9.90;92.40;;;;;;4976497;28;20038;-64
2023/03/26 06:05:41;;;;;;;6.07;4.40;;;9.90;92.60;;;;;;4976205;28;20497;-65
2023/03/26 06:08:07;;;;;;;8.10;4.13;;;9.90;92.60;;;;;;4976128;28;20031;-65
2023/03/26 06:10:37;;;;;;;6.80;4.72;;;9.90;92.70;;;;;;4976393;28;20142;-65
2023/03/26 06:13:02;;;;;;;8.80;4.17;;;10.00;92.90;;;;;;4976464;28;20037;-64
2023/03/26 06:15:28;;;;;;;7.27;4.30;;;10.00;92.90;;;;;;4975104;28;20027;-65
2023/03/26 06:17:54;;;;;;;7.53;4.30;;;10.10;93.00;;;;;;4976086;28;20039;-63
2023/03/26 06:20:19;;;;;;;6.77;3.87;;;10.10;93.00;;;;;;4976102;28;20105;-64
2023/03/26 06:22:45;;;;;;;6.50;4.27;;;10.10;93.00;;;;;;4976318;28;20027;-64
2023/03/26 06:25:11;;;;;;;7.63;4.90;;;10.20;93.10;;;;;;4973852;28;20031;-64
2023/03/26 06:27:36;;;;;;;11.63;5.83;;;10.20;93.20;;;;;;4982362;28;20030;-64
2023/03/26 06:30:02;;;;;;;12.60;6.37;;;10.20;93.20;;;;;;4994905;28;20031;-64
2023/03/26 06:32:28;;;;;;;11.80;5.47;;;10.30;93.40;;;;;;4993545;28;20545;-64
2023/03/26 06:34:54;;;;;;;8.00;4.88;;;10.30;93.50;;;;;;4992430;28;20046;-65
2023/03/26 06:37:19;;;;;;;5.93;3.57;;;10.40;93.60;;;;;;4992603;28;20034;-63
2023/03/26 06:39:45;;;;;;;5.90;2.72;;;10.40;93.90;;;;;;4994413;28;20026;-64
2023/03/26 06:42:10;;;;;;;4.20;2.20;;;10.50;93.60;;;;;;4994768;28;20035;-64
2023/03/26 06:44:36;;;;;;;6.03;2.10;;;10.50;93.50;;;;;;4995375;28;20065;-64
2023/03/26 06:47:02;;;;;;;6.95;2.30;;;10.60;93.20;;;;;;4995294;28;20105;-63
2023/03/26 06:49:28;;;;;;;3.60;1.88;;;10.60;92.90;;;;;;4995311;28;20105;-64
2023/03/26 06:51:53;;;;;;;4.00;1.95;;;10.70;92.80;;;;;;4995259;28;20372;-64
2023/03/26 06:54:19;;;;;;;3.63;2.03;;;10.70;92.70;;;;;;4994206;28;20049;-63
2023/03/26 06:56:45;;;;;;;5.13;1.90;;;10.70;92.50;;;;;;4992556;28;20106;-64
2023/03/26 06:59:11;;;;;;;3.20;2.20;;;10.80;92.40;;;;;;4992619;28;20042;-63
2023/03/26 07:01:36;;;;;;;3.83;1.90;;;10.80;92.20;;;;;;4995124;28;20023;-63
2023/03/26 07:04:02;;;;;;;3.42;2.17;;;10.80;92.10;;;;;;4995195;28;20054;-64
2023/03/26 07:06:28;;;;;;;2.90;1.80;;;10.90;91.90;;;;;;4994556;28;20386;-63
2023/03/26 07:08:55;;;;;;;6.95;2.50;;;10.90;91.80;;;;;;4994573;28;20036;-63
2023/03/26 07:11:24;;;;;;;3.00;2.22;;;11.00;91.80;;;;;;4994875;28;20022;-64
2023/03/26 07:13:50;;;;;;;3.75;2.08;;;11.00;91.70;;;;;;4994607;28;20539;-65
2023/03/26 07:16:16;;;;;;;2.17;1.73;;;11.10;91.60;;;;;;4994768;28;20027;-64
2023/03/26 07:18:41;;;;;;;3.10;1.98;;;11.20;91.50;;;;;;4992589;28;20057;-64
2023/03/26 07:21:08;;;;;;;3.35;2.17;;;11.20;91.40;;;;;;4993825;28;20019;-64
2023/03/26 07:23:34;;;;;;;2.72;1.98;;;11.20;91.30;;;;;;4992523;28;20036;-64
2023/03/26 07:26:11;;;;;;;6.95;2.78;;;11.30;91.10;;;;;;4994013;28;20034;-64
2023/03/26 07:28:40;;;;;;;3.60;2.20;;;11.30;91.10;;;;;;4993839;28;20035;-62
2023/03/26 07:31:20;;;;;;;3.85;2.45;;;11.40;91.10;;;;;;4993883;28;20026;-63
2023/03/26 07:34:03;;;;;;;5.45;2.58;;;11.40;91.10;;;;;;4994063;28;20023;-62
2023/03/26 07:36:47;;;;;;;5.50;2.72;;;11.50;90.80;;;;;;4994223;28;20062;-63
2023/03/26 07:39:45;;;;;;;6.30;3.70;;;11.50;90.80;;;;;;4994318;28;20031;-64
2023/03/26 07:42:58;;;;;;;9.45;4.13;;;11.50;91.00;;;;;;4993216;28;20061;-65
2023/03/26 07:45:32;;;;;;;7.10;3.47;;;11.60;91.70;;;;;;4988162;28;20730;-64
2023/03/26 07:47:59;;;;;;;6.20;3.38;;;11.60;91.50;;;;;;4993585;28;20101;-64
2023/03/26 07:50:25;;;;;;;6.95;3.60;;;11.60;91.50;;;;;;4992654;28;20134;-65
2023/03/26 07:52:51;;;;;;;6.43;3.78;;;11.70;91.50;;;;;;4993466;28;20026;-64
2023/03/26 07:55:17;;;;;;;5.88;3.05;;;11.70;91.60;;;;;;4993461;28;20076;-64
2023/03/26 07:58:07;;;;;;;5.60;2.60;;;11.70;91.70;;;;;;4992283;28;20038;-65
2023/03/26 08:00:40;;;;;;;4.03;2.53;;;11.80;91.80;;;;;;4992454;28;20040;-63
2023/03/26 08:04:03;;;;;;;3.30;2.20;;;11.80;91.50;;;;;;4993498;28;20030;-64
2023/03/26 08:06:45;;;;;;;5.32;2.45;;;11.80;91.40;;;;;;4933703;29;20036;-66
2023/03/26 08:09:37;;;;;;;3.28;2.55;;;11.90;91.30;;;;;;4927039;29;20425;-63
2023/03/26 08:12:26;;;;;;;3.07;2.60;;;12.10;91.20;;;;;;4954776;28;20490;-64
2023/03/26 08:15:29;;;;;;;5.75;2.63;;;12.10;91.30;;;;;;4974312;28;20305;-63
2023/03/26 08:18:01;;;;;;;6.20;2.97;;;12.20;91.20;;;;;;4973627;28;20039;-68
2023/03/26 08:20:33;;;;;;;4.68;2.65;;;12.30;91.10;;;;;;4949660;28;20505;-65
2023/03/26 08:23:22;;;;;;;6.82;2.50;;;12.40;91.10;;;;;;4974317;28;20066;-64
2023/03/26 08:26:43;;;;;;;5.85;2.70;;;12.40;90.90;;;;;;4974174;28;20427;-65
2023/03/26 08:29:26;;;;;;;5.65;2.50;;;12.50;90.60;;;;;;4952699;28;20030;-70
2023/03/26 08:31:53;;;;;;;3.75;2.53;;;12.50;90.40;;;;;;4974507;28;20031;-69
2023/03/26 08:34:19;;;;;;;5.45;2.50;;;12.60;90.40;;;;;;4971743;28;20027;-64
2023/03/26 08:36:46;;;;;;;7.50;2.70;;;12.60;90.40;;;;;;4981377;28;20086;-68
2023/03/26 08:39:13;;;;;;;3.45;2.42;;;12.70;90.40;;;;;;4992629;28;20426;-65
2023/03/26 08:41:52;;;;;;;4.97;2.60;;;12.70;90.40;;;;;;4993142;28;20026;-65
2023/03/26 08:44:32;;;;;;;4.97;3.05;;;12.80;90.30;;;;;;4993032;28;20037;-64
2023/03/26 08:47:21;;;;;;;8.15;2.97;;;12.80;90.20;;;;;;4992036;28;20113;-67
2023/03/26 08:50:31;;;;;;;4.90;3.17;;;12.90;90.20;;;;;;4992871;28;20037;-65
2023/03/26 08:53:28;;;;;;;6.18;2.97;;;13.00;90.20;;;;;;4988158;28;20402;-65
2023/03/26 08:56:23;;;;;;;8.18;2.88;;;13.00;90.30;;;;;;4993526;28;20030;-65
2023/03/26 08:59:14;;;;;;;3.58;2.60;;;13.10;90.40;;;;;;4991106;28;20039;-64
2023/03/26 09:02:07;;;;;;;5.82;3.08;;;13.10;90.50;;;;;;4990581;28;20037;-65
2023/03/26 09:05:11;;;;;;;5.53;3.40;;;13.20;91.00;;;;;;4991304;28;20065;-65
2023/03/26 09:07:53;;;;;;;;;;;13.40;91.10;;;;;;4992325;28;20030;-65
2023/03/26 09:10:37;;;;;;;7.32;2.72;;;13.50;91.10;;;;;;4992810;28;19906;-65
2023/03/26 09:13:24;;;;;;;6.53;2.58;;;13.60;91.00;;;;;;4992113;28;20117;-65
2023/03/26 09:16:11;;;;;;;5.50;2.92;;;13.70;90.90;;;;;;4993229;28;20022;-65
2023/03/26 09:19:03;;;;;;;6.00;2.70;;;13.80;90.60;;;;;;4993250;28;20042;-65
2023/03/26 09:21:47;;;;;;;5.45;2.47;;;13.90;90.60;;;;;;4985703;28;20035;-64
2023/03/26 09:24:31;;;;;;;10.18;2.38;;;13.90;90.50;;;;;;4993318;28;20390;-65
2023/03/26 09:27:26;;;;;;;6.55;2.45;;;14.00;90.20;;;;;;4993267;28;20050;-64
2023/03/26 09:30:17;;;;;;;7.20;3.53;;;14.10;90.00;;;;;;4992831;28;20102;-62
2023/03/26 09:33:20;;;;;;;5.40;2.55;;;14.10;89.80;;;;;;4996788;28;20085;-64
2023/03/26 09:36:30;;;;;;;4.88;2.30;;;14.10;90.10;;;;;;4996888;28;20145;-63
2023/03/26 09:39:09;;;;;;;4.47;2.40;;;14.20;89.90;;;;;;4974370;28;20113;-63
2023/03/26 09:41:48;;;;;;;5.82;2.60;;;14.20;89.90;;;;;;4996731;28;20049;-63
2023/03/26 09:44:27;;;;;;;4.53;2.40;;;14.20;89.50;;;;;;4996891;28;20033;-64
2023/03/26 09:47:21;;;;;;;4.95;2.85;;;14.20;89.50;;;;;;4996721;28;20125;-64
2023/03/26 09:49:52;;;;;;;9.57;3.17;;;14.20;89.30;;;;;;4996889;28;20085;-63
2023/03/26 09:52:42;;;;;;;4.88;2.78;;;14.20;88.50;;;;;;4996915;28;20034;-62
2023/03/26 09:55:43;;;;;;;7.03;2.97;;;14.30;88.60;;;;;;4996711;28;20038;-63
2023/03/26 09:58:37;;;;;;;6.68;2.50;;;14.30;89.10;;;;;;4989317;28;20054;-62
2023/03/26 10:01:09;;;;;;;7.30;2.50;;;14.30;89.50;;;;;;4996601;28;20030;-63
2023/03/26 10:03:47;;;;;;;8.70;2.97;;;14.30;89.40;;;;;;4996546;28;20041;-62
2023/03/26 10:06:51;;;;;;;10.18;3.45;;;14.30;89.30;;;;;;4996114;28;20035;-62
2023/03/26 10:09:28;;;;;;;6.05;2.65;;;14.30;89.00;;;;;;4955553;29;20042;-62
2023/03/26 10:12:12;;;;;;;6.13;2.90;;;14.30;89.00;;;;;;4991387;28;20034;-62
2023/03/26 10:14:50;;;;;;;5.70;2.92;;;14.40;88.70;;;;;;4996170;28;20061;-62
2023/03/26 10:17:32;;;;;;;6.15;2.83;;;14.40;88.60;;;;;;4996382;28;20026;-63
2023/03/26 10:20:18;;;;;;;6.77;2.57;;;14.50;88.40;;;;;;4996213;28;20049;-63
2023/03/26 10:22:54;;;;;;;8.07;2.42;;;14.50;87.80;;;;;;4995952;28;21055;-63
2023/03/26 10:25:28;;;;;;;6.60;2.67;;;14.50;86.90;;;;;;4994495;28;20019;-63
2023/03/26 10:28:06;;;;;;;11.63;2.85;;;14.50;86.50;;;;;;4996076;28;20109;-63
2023/03/26 10:30:57;;;;;;;10.20;3.22;;;14.60;86.40;;;;;;4995800;28;20537;-63
2023/03/26 10:33:34;;;;;;;10.10;3.20;;;14.70;86.20;;;;;;4995918;28;20032;-63
2023/03/26 10:36:28;;;;;;;11.40;3.28;;;14.80;86.10;;;;;;4996028;28;20022;-62
2023/03/26 10:39:13;;;;;;;8.98;2.60;;;14.90;85.40;;;;;;4996058;28;20034;-63
2023/03/26 10:41:58;;;;;;;9.25;2.63;;;14.90;85.40;;;;;;4995687;28;20105;-62
2023/03/26 10:44:43;;;;;;;9.27;2.85;;;15.00;85.20;;;;;;4995698;28;20029;-65
2023/03/26 10:47:29;;;;;;;11.48;3.58;;;15.10;84.90;;;;;;4995718;28;20418;-65
2023/03/26 10:50:14;;;;;;;12.35;3.10;;;15.20;84.40;;;;;;4995457;28;20048;-65
2023/03/26 10:52:54;;;;;;;8.20;2.80;;;15.30;84.80;;;;;;4995719;28;20101;-65
2023/03/26 10:55:35;;;;;;;10.02;2.90;;;15.30;84.80;;;;;;4995395;28;20113;-65
2023/03/26 10:58:25;;;;;;;11.88;2.88;;;15.40;84.00;;;;;;4994190;28;20047;-65
2023/03/26 11:01:09;;;;;;;8.93;2.88;;;15.50;84.20;;;;;;4992917;28;20398;-65
2023/03/26 11:03:53;;;;;;;8.55;3.00;;;15.50;84.20;;;;;;4993939;28;20106;-65
2023/03/26 11:07:00;;;;;;;10.13;2.63;;;15.50;83.40;;;;;;4995147;28;20387;-64
2023/03/26 11:09:45;;;;;;;9.43;2.42;;;15.50;83.20;;;;;;4995096;28;20081;-65
2023/03/26 11:12:16;;;;;;;6.90;3.03;;;15.50;83.10;;;;;;4995361;28;20094;-64
2023/03/26 11:15:07;;;;;;;9.15;3.25;;;15.50;82.90;;;;;;4994967;28;20026;-65
2023/03/26 11:17:38;;;;;;;6.90;3.10;;;15.50;83.20;;;;;;4995000;28;20081;-64
2023/03/26 11:20:10;;;;;;;8.70;3.17;;;15.50;82.80;;;;;;4995260;28;20034;-64
2023/03/26 11:23:16;;;;;;;6.57;2.55;;;15.50;82.60;;;;;;4994325;28;20061;-65
2023/03/26 11:26:00;;;;;;;8.65;2.40;;;15.40;82.50;;;;;;4992282;28;20029;-65
2023/03/26 11:29:07;;;;;;;13.13;2.70;;;15.40;82.20;;;;;;4992321;28;20027;-65
2023/03/26 11:31:51;;;;;;;7.75;2.58;;;15.30;82.50;;;;;;4994325;28;20046;-65
2023/03/26 11:34:29;;;;;;;10.32;2.78;;;15.30;83.10;;;;;;4994922;28;20093;-65
2023/03/26 11:36:57;;;;;;;7.15;2.42;;;15.30;83.50;;;;;;4994798;28;20115;-65
2023/03/26 11:39:28;;;;;;;7.35;3.05;;;15.30;83.50;;;;;;4994541;28;20073;-65
2023/03/26 11:42:09;;;;;;;8.98;3.00;;;15.40;84.10;;;;;;4994719;28;20073;-65
2023/03/26 11:44:57;;;;;;;7.75;2.70;;;15.40;84.40;;;;;;4994271;28;20049;-65
2023/03/26 11:47:37;;;;;;;7.07;2.60;;;15.50;84.70;;;;;;4992995;28;20050;-62
2023/03/26 11:50:07;;;;;;;9.85;2.88;;;15.50;84.80;;;;;;4994456;28;20023;-65
2023/03/26 11:52:32;;;;;;;18.23;3.05;;;15.50;84.60;;;;;;4994214;28;20089;-64
2023/03/26 11:54:58;;;;;;;8.65;3.13;;;15.60;84.60;;;;;;4993518;28;20014;-65
2023/03/26 11:57:35;;;;;;;11.98;3.85;;;15.60;84.40;;;;;;4994419;28;20053;-64
2023/03/26 12:00:16;;;;;;;9.20;3.08;;;15.60;84.50;;;;;;4994197;28;20033;-65
2023/03/26 12:02:44;;;;;;;9.27;3.08;;;15.60;84.80;;;;;;4993997;28;20371;-63
2023/03/26 12:05:13;;;;;;;11.18;3.40;;;15.70;85.30;;;;;;4994218;28;20105;-63
2023/03/26 12:07:45;;;;;;;18.50;4.00;;;15.70;85.90;;;;;;4994295;28;20034;-64
2023/03/26 12:10:41;;;;;;;16.63;3.15;;;15.80;86.70;;;;;;4994224;28;20030;-63
2023/03/26 12:13:31;;;;;;;21.77;4.20;;;15.90;86.40;;;;;;4985477;28;20093;-63
2023/03/26 12:16:08;;;;;;;17.65;3.30;;;15.80;86.50;;;;;;4993969;28;20030;-63
2023/03/26 12:18:35;;;;;;;16.00;3.42;;;15.90;85.60;;;;;;4993592;28;20121;-63
2023/03/26 12:21:13;;;;;;;14.88;3.22;;;15.90;85.10;;;;;;4993810;28;20460;-64
2023/03/26 12:24:00;;;;;;;17.85;3.60;;;16.00;85.20;;;;;;4988919;28;20054;-64
2023/03/26 12:26:38;;;;;;;15.82;3.28;;;16.10;84.70;;;;;;4971502;28;20062;-63
2023/03/26 12:29:09;;;;;;;22.85;4.40;;;16.20;84.00;;;;;;4971400;28;20030;-64
2023/03/26 12:32:13;;;;;;;14.40;3.17;;;16.30;83.10;;;;;;4972556;28;20143;-65
2023/03/26 12:34:40;;;;;;;18.73;3.60;;;16.40;82.20;;;;;;4970754;28;20038;-63
2023/03/26 12:37:26;;;;;;;13.25;3.47;;;16.50;82.10;;;;;;4974229;28;20054;-63
2023/03/26 12:40:27;;;;;;;25.77;4.22;;;16.60;81.70;;;;;;4973965;28;20039;-63
2023/03/26 12:43:06;;;;;;;17.67;3.85;;;16.60;81.20;;;;;;4970844;28;20058;-64
2023/03/26 12:45:41;;;;;;;14.48;3.20;;;16.70;80.50;;;;;;4974037;28;20033;-64
2023/03/26 12:48:10;;;;;;;18.98;3.45;;;16.80;80.00;;;;;;4973861;28;20054;-63
2023/03/26 12:51:00;;;;;;;16.23;3.70;;;16.70;79.30;;;;;;4973903;28;20113;-63
2023/03/26 12:53:41;;;;;;;16.20;3.10;;;16.70;78.60;;;;;;4972941;28;20023;-64
2023/03/26 12:56:18;;;;;;;19.30;3.17;;;16.70;77.70;;;;;;4973603;28;20023;-64
2023/03/26 12:58:59;;;;;;;17.17;3.25;;;16.60;77.40;;;;;;4973934;28;20035;-64
2023/03/26 13:02:15;;;;;;;15.10;4.00;;;16.50;77.10;;;;;;4973884;28;20019;-63
2023/03/26 13:04:41;;;;;;;15.02;3.08;;;16.40;77.10;;;;;;4964787;28;20045;-64
2023/03/26 13:07:12;;;;;;;11.10;2.78;;;16.30;77.10;;;;;;4977065;28;20027;-64
2023/03/26 13:09:49;;;;;;;14.73;2.70;;;16.20;76.90;;;;;;4977363;28;20062;-64
2023/03/26 13:12:18;;;;;;;16.75;3.92;;;16.10;76.90;;;;;;4977765;28;20023;-63
2023/03/26 13:15:02;;;;;;;16.95;2.85;;;16.00;77.30;;;;;;4977757;28;20070;-63
2023/03/26 13:17:37;;;;;;;15.45;3.00;;;15.90;77.70;;;;;;4974561;28;20454;-63
2023/03/26 13:20:31;;;;;;;14.50;2.50;;;15.90;77.70;;;;;;4974613;28;20155;-63
2023/03/26 13:23:07;;;;;;;12.30;2.80;;;15.80;77.10;;;;;;4977102;28;20031;-63
2023/03/26 13:25:53;;;;;;;22.88;3.80;;;15.80;76.80;;;;;;4977810;28;20019;-63
2023/03/26 13:28:30;;;;;;;14.68;2.55;;;15.70;76.70;;;;;;4977653;28;20031;-63